createdAt,value
2023-05-09T00:01:40.365Z,3.08
2023-05-09T00:04:44.604Z,3.50
2023-05-09T00:07:51.350Z,4.15
2023-05-09T00:10:55.473Z,3.00
2023-05-09T00:14:01.956Z,3.63
2023-05-09T00:17:06.379Z,3.65
2023-05-09T00:20:12.915Z,2.80
2023-05-09T00:23:17.681Z,2.70
2023-05-09T00:26:24.221Z,2.50
2023-05-09T00:29:30.058Z,3.17
2023-05-09T00:32:35.523Z,2.85
2023-05-09T00:35:40.109Z,3.22
2023-05-09T00:38:44.724Z,3.10
2023-05-09T00:41:52.059Z,2.83
2023-05-09T00:44:56.249Z,2.95
2023-05-09T00:48:00.627Z,3.00
2023-05-09T00:51:05.646Z,2.95
2023-05-09T00:54:11.128Z,2.70
2023-05-09T01:00:19.872Z,2.85
2023-05-09T01:08:49.233Z,3.00
2023-05-09T01:12:14.431Z,2.97
2023-05-09T01:15:43.449Z,4.00
2023-05-09T01:19:12.029Z,4.75
2023-05-09T01:25:59.634Z,2.47
2023-05-09T01:29:36.263Z,2.45
2023-05-09T01:33:13.912Z,2.80
2023-05-09T01:36:44.829Z,2.40
2023-05-09T01:40:12.122Z,2.88
2023-05-09T01:43:20.905Z,2.20
2023-05-09T01:46:31.467Z,2.17
2023-05-09T01:49:41.308Z,2.10
2023-05-09T01:53:06.118Z,2.10
2023-05-09T01:56:20.450Z,2.30
2023-05-09T01:59:29.464Z,3.13
2023-05-09T02:02:45.091Z,3.03
2023-05-09T02:06:00.706Z,2.83
2023-05-09T02:09:08.376Z,2.60
2023-05-09T02:12:14.946Z,3.15
2023-05-09T02:15:21.192Z,2.50
2023-05-09T02:18:42.358Z,2.22
2023-05-09T02:26:15.081Z,2.22
2023-05-09T02:29:39.477Z,2.40
2023-05-09T02:33:37.703Z,2.17
2023-05-09T02:41:02.169Z,2.03
2023-05-09T02:44:20.464Z,1.92
2023-05-09T02:47:26.365Z,1.85
2023-05-09T02:50:35.150Z,2.80
2023-05-09T02:53:54.199Z,2.28
2023-05-09T02:57:08.066Z,2.23
2023-05-09T03:00:17.848Z,1.80
2023-05-09T03:03:25.324Z,2.05
2023-05-09T03:06:29.659Z,2.30
2023-05-09T03:09:44.310Z,2.25
2023-05-09T03:13:14.465Z,2.10
2023-05-09T03:16:23.699Z,2.20
2023-05-09T03:19:39.512Z,3.10
2023-05-09T03:22:55.839Z,2.13
2023-05-09T03:26:10.219Z,2.25
2023-05-09T03:29:16.172Z,2.17
2023-05-09T03:32:27.545Z,2.08
2023-05-09T03:35:58.104Z,2.35
2023-05-09T03:39:10.961Z,2.35
2023-05-09T03:42:18.388Z,2.20
2023-05-09T03:45:36.929Z,2.17
2023-05-09T03:48:49.641Z,5.25
2023-05-09T03:52:12.439Z,2.45
2023-05-09T03:55:24.795Z,3.67
2023-05-09T03:58:41.189Z,2.72
2023-05-09T04:01:50.690Z,2.70
2023-05-09T04:05:02.819Z,2.35
2023-05-09T04:08:25.093Z,2.63
2023-05-09T04:11:46.672Z,2.10
2023-05-09T04:14:59.545Z,2.13
2023-05-09T04:18:04.085Z,3.92
2023-05-09T04:21:09.362Z,2.10
2023-05-09T04:24:16.519Z,2.10
2023-05-09T04:27:24.707Z,2.00
2023-05-09T04:30:38.300Z,2.17
2023-05-09T04:33:42.633Z,1.98
2023-05-09T04:36:47.079Z,1.90
2023-05-09T04:39:54.617Z,2.22
2023-05-09T04:43:04.977Z,2.00
2023-05-09T04:46:09.271Z,2.00
2023-05-09T04:49:16.782Z,1.80
2023-05-09T04:52:20.748Z,2.10
2023-05-09T04:55:36.389Z,1.45
2023-05-09T04:58:42.781Z,2.15
2023-05-09T05:01:47.757Z,2.72
2023-05-09T05:04:57.926Z,2.08
2023-05-09T05:08:09.770Z,2.15
2023-05-09T05:11:18.765Z,1.90
2023-05-09T05:14:23.746Z,2.00
2023-05-09T05:17:45.200Z,2.10
2023-05-09T05:21:05.308Z,2.60
2023-05-09T05:24:15.036Z,2.58
2023-05-09T05:27:22.828Z,2.30
2023-05-09T05:30:34.337Z,2.72
2023-05-09T05:33:39.573Z,2.92
2023-05-09T05:36:44.877Z,2.80
2023-05-09T05:39:52.376Z,2.90
2023-05-09T05:42:56.748Z,3.13
2023-05-09T05:46:06.668Z,2.90
2023-05-09T05:49:18.839Z,2.90
2023-05-09T05:52:24.215Z,2.50
2023-05-09T05:55:28.507Z,2.50
2023-05-09T05:58:35.942Z,2.92
2023-05-09T06:02:11.440Z,2.10
2023-05-09T06:05:16.756Z,2.45
2023-05-09T06:08:49.941Z,2.53
2023-05-09T06:12:09.996Z,2.58
2023-05-09T06:15:20.208Z,2.42
2023-05-09T06:22:11.205Z,2.13
2023-05-09T06:25:17.834Z,2.70
2023-05-09T06:28:24.853Z,2.40
2023-05-09T06:31:31.227Z,2.30
2023-05-09T06:34:35.369Z,2.33
2023-05-09T06:37:41.518Z,1.90
2023-05-09T06:40:45.554Z,1.92
2023-05-09T06:43:49.999Z,2.65
2023-05-09T06:46:55.442Z,2.60
2023-05-09T06:49:59.364Z,2.35
2023-05-09T06:53:03.683Z,2.55
2023-05-09T06:56:07.787Z,2.40
2023-05-09T06:59:17.435Z,2.50
2023-05-09T07:02:21.423Z,2.10
2023-05-09T07:05:25.620Z,2.22
2023-05-09T07:08:29.765Z,2.17
2023-05-09T07:11:39.603Z,2.72
2023-05-09T07:14:43.525Z,2.35
2023-05-09T07:17:50.506Z,2.20
2023-05-09T07:20:54.479Z,2.50
2023-05-09T07:24:28.446Z,2.50
2023-05-09T07:27:39.354Z,4.10
2023-05-09T07:30:48.948Z,2.65
2023-05-09T07:34:02.091Z,2.60
2023-05-09T07:37:13.723Z,2.80
2023-05-09T07:40:51.428Z,2.40
2023-05-09T07:48:53.214Z,2.80
2023-05-09T07:51:58.433Z,2.75
2023-05-09T07:55:06.750Z,3.00
2023-05-09T07:58:14.134Z,2.50
2023-05-09T08:01:31.630Z,2.90
2023-05-09T08:04:40.079Z,3.70
2023-05-09T08:07:48.824Z,3.15
2023-05-09T08:11:07.147Z,3.40
2023-05-09T08:14:29.498Z,2.87
2023-05-09T08:17:44.392Z,4.13
2023-05-09T08:20:50.161Z,3.63
2023-05-09T08:23:55.528Z,4.95
2023-05-09T08:27:02.628Z,5.47
2023-05-09T08:30:12.607Z,4.70
2023-05-09T08:33:18.897Z,4.30
2023-05-09T08:36:24.095Z,3.97
2023-05-09T08:39:28.087Z,4.63
2023-05-09T08:42:36.391Z,3.55
2023-05-09T08:48:59.228Z,3.33
2023-05-09T08:52:06.416Z,4.20
2023-05-09T08:55:13.763Z,4.20
2023-05-09T08:58:21.789Z,3.97
2023-05-09T09:01:27.909Z,4.10
2023-05-09T09:04:33.709Z,4.55
2023-05-09T09:07:42.632Z,4.15
2023-05-09T09:10:49.949Z,4.22
2023-05-09T09:14:03.218Z,5.30
2023-05-09T09:17:09.741Z,4.85
2023-05-09T09:20:15.833Z,5.40
2023-05-09T09:23:21.751Z,4.63
2023-05-09T09:29:41.897Z,3.90
2023-05-09T09:32:46.697Z,4.93
2023-05-09T09:35:54.526Z,4.57
2023-05-09T09:39:06.018Z,6.35
2023-05-09T09:42:28.660Z,7.50
2023-05-09T09:45:35.559Z,6.65
2023-05-09T09:48:40.312Z,10.02
2023-05-09T09:51:45.484Z,5.50
2023-05-09T09:54:50.489Z,5.53
2023-05-09T09:57:54.906Z,6.57
2023-05-09T10:01:14.681Z,9.25
2023-05-09T10:04:18.833Z,8.93
2023-05-09T10:07:26.335Z,7.70
2023-05-09T10:10:32.526Z,6.63
2023-05-09T10:13:39.457Z,5.30
2023-05-09T10:16:47.976Z,4.80
2023-05-09T10:19:53.488Z,4.63
2023-05-09T10:23:01.363Z,6.00
2023-05-09T10:26:09.118Z,5.97
2023-05-09T10:29:21.956Z,5.50
2023-05-09T10:32:34.479Z,5.18
2023-05-09T10:35:45.884Z,9.10
2023-05-09T10:38:51.160Z,10.95
2023-05-09T10:41:56.128Z,10.85
2023-05-09T10:45:00.273Z,10.65
2023-05-09T10:48:09.537Z,13.13
2023-05-09T10:51:14.236Z,10.38
2023-05-09T10:54:30.884Z,9.90
2023-05-09T10:57:40.880Z,10.65
2023-05-09T11:00:45.234Z,11.60
2023-05-09T11:04:00.784Z,11.65
2023-05-09T11:07:07.858Z,12.15
2023-05-09T11:10:18.542Z,10.10
2023-05-09T11:13:25.598Z,8.02
2023-05-09T11:17:02.369Z,7.83
2023-05-09T11:20:07.692Z,7.63
2023-05-09T11:23:18.163Z,9.27
2023-05-09T11:26:24.547Z,8.88
2023-05-09T11:29:29.113Z,10.43
2023-05-09T11:32:35.106Z,11.50
2023-05-09T11:35:48.362Z,15.05
2023-05-09T11:39:12.301Z,15.38
2023-05-09T11:42:18.445Z,15.05
2023-05-09T11:45:27.145Z,9.25
2023-05-09T11:48:31.511Z,8.10
2023-05-09T11:51:41.432Z,6.88
2023-05-09T11:54:46.680Z,5.63
2023-05-09T11:57:53.251Z,4.70
2023-05-09T12:00:59.944Z,5.35
2023-05-09T12:04:04.632Z,4.90
2023-05-09T12:07:08.616Z,6.28
2023-05-09T12:10:18.981Z,6.60
2023-05-09T12:13:23.636Z,6.78
2023-05-09T12:16:27.680Z,5.95
2023-05-09T12:19:32.042Z,6.03
2023-05-09T12:22:38.400Z,6.03
2023-05-09T12:26:03.596Z,4.82
2023-05-09T12:29:09.436Z,6.10
2023-05-09T12:35:24.361Z,6.43
2023-05-09T12:38:31.897Z,6.28
2023-05-09T12:42:18.115Z,6.13
2023-05-09T12:45:28.749Z,8.73
2023-05-09T12:48:42.322Z,8.63
2023-05-09T12:51:51.122Z,9.20
2023-05-09T12:54:57.060Z,7.32
2023-05-09T13:01:12.519Z,8.23
2023-05-09T13:04:22.125Z,8.68
2023-05-09T13:07:28.384Z,9.98
2023-05-09T13:10:39.279Z,9.80
2023-05-09T13:13:50.382Z,8.38
2023-05-09T13:16:54.853Z,7.78
2023-05-09T13:19:59.016Z,6.72
2023-05-09T13:23:09.231Z,7.20
2023-05-09T13:26:15.862Z,6.60
2023-05-09T13:29:27.581Z,6.82
2023-05-09T13:32:32.592Z,6.18
2023-05-09T13:35:36.788Z,6.73
2023-05-09T13:38:46.321Z,5.20
2023-05-09T13:41:52.248Z,7.43
2023-05-09T13:44:59.786Z,15.68
2023-05-09T13:48:06.706Z,14.15
2023-05-09T13:51:16.565Z,13.90
2023-05-09T13:54:25.540Z,11.85
2023-05-09T13:57:31.110Z,13.60
2023-05-09T14:00:35.486Z,10.45
2023-05-09T14:03:39.718Z,8.73
2023-05-09T14:06:49.077Z,6.80
2023-05-09T14:10:10.577Z,6.18
2023-05-09T14:13:17.876Z,6.50
2023-05-09T14:16:22.905Z,6.93
2023-05-09T14:19:28.085Z,6.10
2023-05-09T14:22:34.612Z,4.85
2023-05-09T14:26:06.972Z,4.70
2023-05-09T14:51:40.301Z,6.13
2023-05-09T14:54:44.547Z,5.43
2023-05-09T14:57:48.393Z,7.32
2023-05-09T15:00:54.220Z,8.57
2023-05-09T15:07:04.176Z,14.20
2023-05-09T15:10:09.954Z,7.43
2023-05-09T15:13:14.026Z,11.15
2023-05-09T15:16:17.898Z,11.77
2023-05-09T15:19:23.319Z,9.00
2023-05-09T15:22:27.357Z,10.77
2023-05-09T15:25:31.779Z,7.45
2023-05-09T15:28:39.404Z,7.93
2023-05-09T15:31:43.382Z,7.72
2023-05-09T15:34:47.959Z,8.20
2023-05-09T15:37:59.703Z,7.35
2023-05-09T15:41:06.269Z,7.38
2023-05-09T15:44:10.282Z,6.82
2023-05-09T15:47:14.659Z,9.35
2023-05-09T15:50:25.026Z,8.52
2023-05-09T15:53:29.784Z,9.13
2023-05-09T15:56:33.890Z,8.85
2023-05-09T15:59:40.762Z,7.68
2023-05-09T16:02:45.104Z,10.40
2023-05-09T16:05:51.776Z,8.05
2023-05-09T16:08:55.889Z,7.25
2023-05-09T16:12:04.870Z,6.85
2023-05-09T16:15:12.188Z,7.32
2023-05-09T16:18:19.583Z,6.93
2023-05-09T16:21:36.153Z,6.65
2023-05-09T16:24:40.468Z,7.07
2023-05-09T16:27:47.812Z,7.80
2023-05-09T16:31:01.547Z,7.85
2023-05-09T16:34:13.111Z,6.95
2023-05-09T16:37:20.375Z,7.38
2023-05-09T16:40:25.962Z,7.63
2023-05-09T16:43:32.109Z,6.97
2023-05-09T16:46:36.164Z,7.63
2023-05-09T16:49:42.316Z,7.45
2023-05-09T16:52:46.300Z,6.75
2023-05-09T16:55:51.170Z,5.75
2023-05-09T16:58:56.680Z,6.25
2023-05-09T17:02:03.309Z,6.13
2023-05-09T17:05:07.934Z,5.45
2023-05-09T17:08:12.228Z,6.88
2023-05-09T17:11:19.237Z,7.63
2023-05-09T17:14:23.286Z,6.15
2023-05-09T17:17:27.581Z,5.40
2023-05-09T17:20:40.569Z,5.75
2023-05-09T17:23:47.562Z,5.05
2023-05-09T17:26:51.667Z,4.63
2023-05-09T17:29:55.868Z,4.38
2023-05-09T17:32:59.876Z,5.55
2023-05-09T17:36:07.727Z,6.35
2023-05-09T17:39:12.443Z,5.18
2023-05-09T17:42:16.536Z,5.07
2023-05-09T17:45:26.257Z,4.88
2023-05-09T17:48:35.376Z,4.80
2023-05-09T17:51:40.990Z,5.85
2023-05-09T17:54:47.660Z,4.90
2023-05-09T17:58:12.952Z,4.57
2023-05-09T18:01:23.122Z,4.55
2023-05-09T18:04:30.963Z,5.15
2023-05-09T18:07:35.038Z,4.70
2023-05-09T18:10:39.216Z,5.20
2023-05-09T18:13:43.391Z,4.40
2023-05-09T18:16:47.725Z,4.53
2023-05-09T18:19:51.927Z,5.10
2023-05-09T18:22:58.925Z,4.95
2023-05-09T18:26:02.792Z,4.82
2023-05-09T18:29:10.299Z,4.75
2023-05-09T18:32:14.852Z,5.45
2023-05-09T18:35:18.973Z,4.97
2023-05-09T18:38:23.549Z,5.85
2023-05-09T18:41:29.730Z,5.28
2023-05-09T18:44:33.949Z,5.78
2023-05-09T18:47:38.642Z,4.97
2023-05-09T18:50:42.717Z,5.30
2023-05-09T18:53:51.123Z,5.10
2023-05-09T18:56:55.261Z,4.53
2023-05-09T19:00:01.373Z,5.00
2023-05-09T19:03:10.324Z,5.25
2023-05-09T19:06:15.978Z,4.80
2023-05-09T19:09:24.362Z,4.68
2023-05-09T19:12:34.986Z,4.63
2023-05-09T19:15:39.340Z,4.72
2023-05-09T19:18:46.387Z,4.75
2023-05-09T19:22:03.383Z,4.50
2023-05-09T19:25:07.738Z,5.93
2023-05-09T19:28:16.896Z,5.80
2023-05-09T19:31:25.846Z,5.57
2023-05-09T19:34:33.506Z,5.40
2023-05-09T19:37:49.814Z,6.80
2023-05-09T19:40:57.814Z,6.20
2023-05-09T19:44:06.230Z,7.57
2023-05-09T19:47:15.892Z,5.40
2023-05-09T19:50:37.825Z,6.50
2023-05-09T19:53:49.421Z,5.63
2023-05-09T19:57:07.290Z,7.00
2023-05-09T20:00:13.021Z,8.25
2023-05-09T20:03:25.432Z,8.05
2023-05-09T20:06:34.984Z,5.25
2023-05-09T20:09:40.258Z,5.40
2023-05-09T20:12:53.844Z,7.13
2023-05-09T20:16:03.515Z,5.38
2023-05-09T20:19:13.568Z,5.88
2023-05-09T20:22:21.712Z,5.18
2023-05-09T20:25:34.827Z,4.97
2023-05-09T20:28:55.292Z,5.97
2023-05-09T20:32:04.635Z,6.75
2023-05-09T20:35:12.242Z,4.72
2023-05-09T20:38:24.625Z,5.07
2023-05-09T20:41:34.465Z,5.50
2023-05-09T20:44:45.236Z,6.95
2023-05-09T20:51:09.604Z,6.10
2023-05-09T20:54:26.169Z,6.20
2023-05-09T20:57:31.028Z,6.18
2023-05-09T21:00:41.886Z,5.72
2023-05-09T21:03:49.204Z,5.95
2023-05-09T21:06:54.103Z,6.15
2023-05-09T21:10:03.525Z,6.60
2023-05-09T21:13:08.644Z,6.82
2023-05-09T21:16:31.006Z,6.55
2023-05-09T21:19:35.430Z,7.85
2023-05-09T21:22:41.107Z,7.47
2023-05-09T21:25:53.148Z,6.70
2023-05-09T21:29:10.408Z,6.60
2023-05-09T21:32:29.279Z,6.10
2023-05-09T21:36:05.694Z,5.95
2023-05-09T21:40:21.409Z,5.70
2023-05-09T21:57:03.326Z,5.70
2023-05-09T22:00:22.335Z,6.70
2023-05-09T22:03:29.005Z,6.80
2023-05-09T22:06:40.190Z,6.07
2023-05-09T22:09:56.596Z,7.00
2023-05-09T22:13:12.715Z,6.10
2023-05-09T22:16:45.492Z,5.78
2023-05-09T22:20:07.901Z,6.55
2023-05-09T22:23:26.613Z,9.45
2023-05-09T22:26:36.498Z,8.43
2023-05-09T22:29:47.496Z,7.72
2023-05-09T22:33:41.500Z,6.07
2023-05-09T22:36:49.530Z,6.63
2023-05-09T22:39:57.437Z,6.05
2023-05-09T22:43:07.856Z,6.57
2023-05-09T22:46:16.202Z,6.60
2023-05-09T22:49:27.857Z,6.75
2023-05-09T22:52:42.442Z,7.53
2023-05-09T22:55:51.139Z,6.88
2023-05-09T22:59:08.514Z,6.40
2023-05-09T23:02:15.626Z,7.30
2023-05-09T23:05:26.835Z,5.90
2023-05-09T23:09:08.333Z,5.85
2023-05-09T23:11:58.152Z,6.63
2023-05-09T23:15:09.426Z,7.30
2023-05-09T23:18:39.357Z,6.18
2023-05-09T23:21:55.640Z,6.15
2023-05-09T23:25:02.338Z,6.03
2023-05-09T23:28:11.277Z,6.97
2023-05-09T23:31:23.044Z,7.00
2023-05-09T23:34:35.412Z,6.63
2023-05-09T23:38:15.839Z,6.13
2023-05-09T23:41:37.353Z,6.70
2023-05-09T23:44:59.310Z,6.90
2023-05-09T23:52:40.453Z,5.45
2023-05-09T23:56:04.431Z,5.38
2023-05-09T23:59:14.020Z,5.05
